ANA333 RJGG-RJCM
Flight info
| Callsign | ANA333 |
|---|---|
| Flight time | N/A |
| Altitude | 37000 |
| Route | KCC Y312 GTC Y124 MQE Y111 OZORA |
| Aircraft | B738/M-SDE2E3FGHIRWXY/LB1 |
Departure
| Time | N/A |
|---|---|
| Airport | Chubu Centrair International Airport (RJGG) |
Arrival
| Time | 2026-05-09 13:22 |
|---|---|
| Airport | Memanbetsu Airport (RJCM) |
| Time | Latitude | Longitude | Altitude | Speed | Heading |
|---|---|---|---|---|---|
| 2026-05-09 12:51 | 41.44896 | 143.62860 | 36895 ft | 442 kts | 8° |
| 2026-05-09 12:51 | 41.47819 | 143.64011 | 36907 ft | 445 kts | 8° |
| 2026-05-09 12:51 | 41.50783 | 143.65181 | 36760 ft | 444 kts | 8° |
| 2026-05-09 12:52 | 41.53784 | 143.66371 | 36139 ft | 447 kts | 8° |
| 2026-05-09 12:52 | 41.56787 | 143.67560 | 35389 ft | 454 kts | 9° |
| 2026-05-09 12:52 | 41.59793 | 143.68756 | 34792 ft | 458 kts | 9° |
| 2026-05-09 12:52 | 41.62834 | 143.69974 | 34406 ft | 455 kts | 9° |
| 2026-05-09 12:53 | 41.65857 | 143.71186 | 34124 ft | 450 kts | 9° |
| 2026-05-09 12:53 | 41.68834 | 143.72378 | 33823 ft | 445 kts | 9° |
| 2026-05-09 12:53 | 41.71793 | 143.73562 | 33442 ft | 441 kts | 9° |
| 2026-05-09 12:53 | 41.74719 | 143.74735 | 33095 ft | 437 kts | 9° |
| 2026-05-09 12:54 | 41.77607 | 143.75894 | 32769 ft | 432 kts | 9° |
| 2026-05-09 12:54 | 41.80468 | 143.77043 | 32448 ft | 427 kts | 9° |
| 2026-05-09 12:54 | 41.83304 | 143.78183 | 32139 ft | 422 kts | 9° |
| 2026-05-09 12:54 | 41.86098 | 143.79306 | 31813 ft | 418 kts | 9° |
| 2026-05-09 12:55 | 41.88875 | 143.80424 | 31491 ft | 414 kts | 10° |
| 2026-05-09 12:55 | 41.91617 | 143.81528 | 31190 ft | 410 kts | 10° |
| 2026-05-09 12:55 | 41.94335 | 143.82623 | 30881 ft | 405 kts | 10° |
| 2026-05-09 12:55 | 41.97023 | 143.83707 | 30584 ft | 401 kts | 10° |
| 2026-05-09 12:56 | 41.99683 | 143.84781 | 30291 ft | 397 kts | 10° |
| 2026-05-09 12:56 | 42.02312 | 143.85844 | 29999 ft | 393 kts | 10° |
| 2026-05-09 12:56 | 42.04918 | 143.86898 | 29636 ft | 389 kts | 10° |
| 2026-05-09 12:56 | 42.07501 | 143.87943 | 29235 ft | 386 kts | 11° |
| 2026-05-09 12:57 | 42.10061 | 143.88980 | 28833 ft | 383 kts | 11° |
| 2026-05-09 12:57 | 42.12606 | 143.90011 | 28427 ft | 380 kts | 11° |
| 2026-05-09 12:57 | 42.15121 | 143.91032 | 28047 ft | 376 kts | 11° |
| 2026-05-09 12:57 | 42.17653 | 143.92060 | 27656 ft | 373 kts | 11° |
| 2026-05-09 12:58 | 42.20129 | 143.93067 | 27280 ft | 370 kts | 11° |
| 2026-05-09 12:58 | 42.22582 | 143.94065 | 26915 ft | 367 kts | 11° |
| 2026-05-09 12:58 | 42.25019 | 143.95057 | 26560 ft | 364 kts | 12° |
| 2026-05-09 12:58 | 42.27404 | 143.96029 | 26207 ft | 361 kts | 12° |
| 2026-05-09 12:59 | 42.29832 | 143.97019 | 25847 ft | 359 kts | 12° |
| 2026-05-09 12:59 | 42.32185 | 143.97978 | 25502 ft | 356 kts | 12° |
| 2026-05-09 12:59 | 42.34577 | 143.98937 | 25153 ft | 353 kts | 12° |
| 2026-05-09 12:59 | 42.36898 | 143.99861 | 24812 ft | 351 kts | 12° |
| 2026-05-09 13:00 | 42.39257 | 144.00799 | 24479 ft | 348 kts | 12° |
| 2026-05-09 13:00 | 42.41544 | 144.01710 | 24152 ft | 346 kts | 12° |
| 2026-05-09 13:00 | 42.43842 | 144.02628 | 23825 ft | 343 kts | 12° |
| 2026-05-09 13:00 | 42.46154 | 144.03553 | 23498 ft | 341 kts | 13° |
| 2026-05-09 13:01 | 42.48394 | 144.04449 | 23133 ft | 338 kts | 13° |
| 2026-05-09 13:01 | 42.49911 | 144.05057 | 22879 ft | 337 kts | 13° |
| 2026-05-09 13:01 | 42.52154 | 144.05957 | 22497 ft | 335 kts | 12° |
| 2026-05-09 13:01 | 42.54373 | 144.06847 | 22128 ft | 333 kts | 12° |
| 2026-05-09 13:02 | 42.56602 | 144.07668 | 21756 ft | 329 kts | 9° |
| 2026-05-09 13:02 | 42.58833 | 144.08310 | 21403 ft | 326 kts | 7° |
| 2026-05-09 13:02 | 42.61056 | 144.08895 | 21050 ft | 324 kts | 6° |
| 2026-05-09 13:02 | 42.63269 | 144.09472 | 20699 ft | 322 kts | 6° |
| 2026-05-09 13:03 | 42.65464 | 144.10052 | 20358 ft | 320 kts | 7° |
| 2026-05-09 13:03 | 42.67644 | 144.10637 | 20013 ft | 318 kts | 7° |
| 2026-05-09 13:03 | 42.69810 | 144.11224 | 19682 ft | 316 kts | 7° |
| 2026-05-09 13:03 | 42.71959 | 144.11812 | 19354 ft | 314 kts | 7° |
| 2026-05-09 13:04 | 42.74099 | 144.12398 | 19020 ft | 313 kts | 7° |
| 2026-05-09 13:04 | 42.76224 | 144.12982 | 18699 ft | 311 kts | 7° |
| 2026-05-09 13:04 | 42.78342 | 144.13565 | 18384 ft | 309 kts | 7° |
| 2026-05-09 13:04 | 42.80442 | 144.14143 | 18060 ft | 307 kts | 6° |
| 2026-05-09 13:05 | 42.82532 | 144.14716 | 17711 ft | 305 kts | 6° |
| 2026-05-09 13:05 | 42.84605 | 144.15256 | 17369 ft | 302 kts | 6° |
| 2026-05-09 13:05 | 42.86665 | 144.15778 | 17033 ft | 300 kts | 6° |
| 2026-05-09 13:05 | 42.88712 | 144.16295 | 16685 ft | 298 kts | 6° |
| 2026-05-09 13:06 | 42.90745 | 144.16811 | 16361 ft | 296 kts | 6° |
| 2026-05-09 13:06 | 42.92757 | 144.17324 | 16040 ft | 294 kts | 6° |
| 2026-05-09 13:06 | 42.94763 | 144.17835 | 15723 ft | 292 kts | 7° |
| 2026-05-09 13:06 | 42.96747 | 144.18343 | 15406 ft | 290 kts | 7° |
| 2026-05-09 13:07 | 42.98726 | 144.18849 | 15100 ft | 288 kts | 7° |
| 2026-05-09 13:07 | 43.00690 | 144.19353 | 14793 ft | 286 kts | 7° |
| 2026-05-09 13:07 | 43.02634 | 144.19852 | 14495 ft | 284 kts | 7° |
| 2026-05-09 13:07 | 43.04581 | 144.20212 | 14189 ft | 280 kts | 0° |
| 2026-05-09 13:08 | 43.06516 | 144.20253 | 13903 ft | 278 kts | 357° |
| 2026-05-09 13:08 | 43.08444 | 144.20209 | 13595 ft | 276 kts | 356° |
| 2026-05-09 13:08 | 43.10335 | 144.20156 | 13291 ft | 274 kts | 357° |
| 2026-05-09 13:08 | 43.12250 | 144.20111 | 12980 ft | 271 kts | 357° |
| 2026-05-09 13:09 | 43.14105 | 144.20076 | 12692 ft | 269 kts | 357° |
| 2026-05-09 13:09 | 43.15967 | 144.20048 | 12400 ft | 266 kts | 358° |
| 2026-05-09 13:09 | 43.17815 | 144.20026 | 12103 ft | 264 kts | 358° |
| 2026-05-09 13:09 | 43.19640 | 144.20007 | 11826 ft | 262 kts | 358° |
| 2026-05-09 13:10 | 43.21454 | 144.19991 | 11539 ft | 259 kts | 358° |
| 2026-05-09 13:10 | 43.23245 | 144.19976 | 11253 ft | 257 kts | 358° |
| 2026-05-09 13:10 | 43.25023 | 144.19962 | 10972 ft | 254 kts | 358° |
| 2026-05-09 13:10 | 43.26789 | 144.19949 | 10695 ft | 252 kts | 358° |
| 2026-05-09 13:11 | 43.28530 | 144.19937 | 10474 ft | 248 kts | 358° |
| 2026-05-09 13:11 | 43.30240 | 144.19925 | 10236 ft | 244 kts | 358° |
| 2026-05-09 13:11 | 43.31933 | 144.19914 | 9990 ft | 241 kts | 358° |
| 2026-05-09 13:11 | 43.33603 | 144.19902 | 9736 ft | 238 kts | 358° |
| 2026-05-09 13:12 | 43.35249 | 144.19891 | 9463 ft | 235 kts | 358° |
| 2026-05-09 13:12 | 43.36882 | 144.19880 | 9137 ft | 235 kts | 358° |
| 2026-05-09 13:12 | 43.38524 | 144.19868 | 8775 ft | 236 kts | 358° |
| 2026-05-09 13:12 | 43.40157 | 144.19857 | 8480 ft | 233 kts | 358° |
| 2026-05-09 13:13 | 43.41773 | 144.19846 | 8233 ft | 231 kts | 358° |
| 2026-05-09 13:13 | 43.43361 | 144.19835 | 7939 ft | 229 kts | 358° |
| 2026-05-09 13:13 | 43.44951 | 144.19825 | 7674 ft | 227 kts | 358° |
| 2026-05-09 13:13 | 43.46527 | 144.19814 | 7393 ft | 227 kts | 358° |
| 2026-05-09 13:14 | 43.48102 | 144.19804 | 7112 ft | 226 kts | 358° |
| 2026-05-09 13:14 | 43.49671 | 144.19761 | 6798 ft | 225 kts | 357° |
| 2026-05-09 13:16 | 43.60690 | 144.19191 | 4577 ft | 228 kts | 355° |
| 2026-05-09 13:16 | 43.62283 | 144.19110 | 4407 ft | 225 kts | 355° |
| 2026-05-09 13:16 | 43.63842 | 144.19030 | 4358 ft | 221 kts | 355° |
| 2026-05-09 13:16 | 43.65339 | 144.18954 | 4354 ft | 209 kts | 355° |
| 2026-05-09 13:17 | 43.66793 | 144.18921 | 4111 ft | 209 kts | 358° |
| 2026-05-09 13:17 | 43.68248 | 144.18946 | 3846 ft | 210 kts | 354° |
| 2026-05-09 13:17 | 43.69694 | 144.18792 | 3594 ft | 206 kts | 351° |
| 2026-05-09 13:17 | 43.71103 | 144.18601 | 3305 ft | 201 kts | 351° |
| 2026-05-09 13:18 | 43.72480 | 144.18420 | 3045 ft | 196 kts | 350° |
| 2026-05-09 13:18 | 43.73811 | 144.18248 | 2808 ft | 188 kts | 350° |
| 2026-05-09 13:18 | 43.75066 | 144.18087 | 2551 ft | 174 kts | 350° |
| 2026-05-09 13:18 | 43.76232 | 144.17937 | 2323 ft | 161 kts | 349° |
| 2026-05-09 13:19 | 43.77282 | 144.17802 | 2130 ft | 143 kts | 350° |
| 2026-05-09 13:19 | 43.78223 | 144.17679 | 1949 ft | 132 kts | 349° |
| 2026-05-09 13:19 | 43.79138 | 144.17559 | 1787 ft | 134 kts | 350° |
| 2026-05-09 13:19 | 43.80074 | 144.17437 | 1603 ft | 136 kts | 350° |
| 2026-05-09 13:20 | 43.81019 | 144.17314 | 1408 ft | 137 kts | 351° |
| 2026-05-09 13:20 | 43.81977 | 144.17190 | 1221 ft | 140 kts | 352° |
| 2026-05-09 13:20 | 43.82945 | 144.17066 | 1047 ft | 140 kts | 352° |
| 2026-05-09 13:20 | 43.83915 | 144.16934 | 841 ft | 141 kts | 353° |
| 2026-05-09 13:21 | 43.84906 | 144.16808 | 624 ft | 144 kts | 354° |
| 2026-05-09 13:21 | 43.85890 | 144.16680 | 401 ft | 144 kts | 354° |
| 2026-05-09 13:21 | 43.86890 | 144.16549 | 184 ft | 142 kts | 354° |
| 2026-05-09 13:21 | 43.87774 | 144.16435 | 129 ft | 109 kts | 354° |
| 2026-05-09 13:22 | 43.88378 | 144.16357 | 125 ft | 65 kts | 354° |
| 2026-05-09 13:22 | 43.88677 | 144.16317 | 120 ft | 28 kts | 348° |
| 2026-05-09 13:22 | 43.88720 | 144.16155 | 120 ft | 17 kts | 264° |
| 2026-05-09 13:23 | 43.88327 | 144.16135 | 125 ft | 14 kts | 174° |
| 2026-05-09 13:23 | 43.88234 | 144.16149 | 125 ft | 13 kts | 174° |
| 2026-05-09 13:24 | 43.88163 | 144.16132 | 128 ft | 8 kts | 235° |
| 2026-05-09 13:24 | 43.88159 | 144.16053 | 126 ft | 8 kts | 272° |
| 2026-05-09 13:24 | 43.88153 | 144.15975 | 126 ft | 8 kts | 264° |
| 2026-05-09 13:24 | 43.88152 | 144.15960 | 126 ft | 0 kts | 263° |